^^
Station Historical Data
Daily Summary for January 21, 2017 Units:  English    Metric   Both
« Previous Day
Next Day »
Daily Weekly Monthly Yearly Custom
  High: Low: Average:
Temperature: 52.0 °F 37.9 °F 43.1 °F
Dew Point: 45.7 °F 36.6 °F 41.1 °F
Humidity: 97% 79% 93%
Wind Speed: 3.0mph 0.0mph 1mph
Wind Gust: 8.0mph - -
Wind- - SW
Pressure: 29.94 in 29.81 in -
Precipitation: 0.01 in    
Historical Graphs
 
 
Tabular Data for January 21, 2017
Time Temperature Dew Point Pressure Wind Wind Speed Wind Gust Humidity Rainfall Rate (Hourly) Conditions
00:00 38.0 °F 36.7 °F 29.93 in Calm   1.0 mph 95% 0.00 in -RA
00:10 37.9 °F 36.6 °F 29.94 in Calm   1.0 mph 95% 0.00 in -RA
00:20 37.9 °F 36.6 °F 29.94 in Calm   1.0 mph 95% 0.01 in -RA
00:30 38.0 °F 36.9 °F 29.93 in Calm   1.0 mph 96% 0.00 in -RA
00:40 38.1 °F 37.1 °F 29.93 in Calm   1.0 mph 96% 0.00 in -RA
00:50 38.2 °F 37.2 °F 29.94 in Calm   1.0 mph 96% 0.00 in -RA
01:00 38.3 °F 37.3 °F 29.93 in Calm   1.0 mph 96% 0.00 in -RA
01:10 38.5 °F 37.5 °F 29.94 in Calm   1.0 mph 96% 0.00 in -RA
01:20 38.6 °F 37.5 °F 29.93 in Calm   1.0 mph 96% 0.00 in -RA
01:30 38.6 °F 37.6 °F 29.94 in Calm   2.0 mph 96% 0.00 in -RA
01:40 38.8 °F 37.8 °F 29.94 in Calm   2.0 mph 96% 0.00 in -RA
01:50 39.0 °F 37.9 °F 29.93 in Calm   3.0 mph 96% 0.00 in -RA
02:00 39.1 °F 38.1 °F 29.93 in Calm   2.0 mph 96% 0.00 in -RA
02:10 39.2 °F 38.2 °F 29.93 in SW 1.0 mph 3.0 mph 96% 0.00 in CLR
02:20 39.4 °F 38.4 °F 29.93 in Calm   2.0 mph 96% 0.00 in CLR
02:30 39.5 °F 38.5 °F 29.93 in SSW 1.0 mph 3.0 mph 96% 0.00 in CLR
02:40 39.6 °F 38.6 °F 29.93 in SSW 1.0 mph 3.0 mph 96% 0.00 in CLR
02:50 39.7 °F 38.9 °F 29.92 in Calm   3.0 mph 97% 0.00 in CLR
03:00 39.9 °F 39.1 °F 29.92 in Calm   3.0 mph 97% 0.00 in CLR
03:10 40.0 °F 39.2 °F 29.92 in Calm   1.0 mph 97% 0.00 in CLR
03:20 40.0 °F 39.2 °F 29.91 in SSW 2.0 mph 4.0 mph 97% 0.00 in CLR
03:30 40.0 °F 39.2 °F 29.92 in SSW 2.0 mph 6.0 mph 97% 0.00 in CLR
03:40 39.9 °F 39.1 °F 29.92 in SW 1.0 mph 5.0 mph 97% 0.00 in CLR
03:50 39.7 °F 38.7 °F 29.91 in Calm   2.0 mph 96% 0.00 in CLR
04:00 39.6 °F 38.8 °F 29.91 in SW 1.0 mph 4.0 mph 97% 0.00 in CLR
04:10 39.7 °F 38.9 °F 29.91 in Calm   4.0 mph 97% 0.00 in CLR
04:20 39.8 °F 39.0 °F 29.90 in SW 1.0 mph 6.0 mph 97% 0.00 in CLR
04:30 39.9 °F 39.1 °F 29.91 in SW 1.0 mph 6.0 mph 97% 0.00 in CLR
04:40 40.0 °F 39.2 °F 29.91 in SSW 3.0 mph 6.0 mph 97% 0.00 in CLR
04:50 40.0 °F 39.2 °F 29.91 in SSW 1.0 mph 6.0 mph 97% 0.00 in CLR
05:00 40.0 °F 39.2 °F 29.91 in SSW 1.0 mph 6.0 mph 97% 0.00 in CLR
05:10 40.0 °F 39.2 °F 29.90 in SSW 2.0 mph 6.0 mph 97% 0.00 in OVC
05:20 40.0 °F 39.2 °F 29.90 in SSW 1.0 mph 6.0 mph 97% 0.00 in OVC
05:30 40.0 °F 39.2 °F 29.89 in SW 2.0 mph 5.0 mph 97% 0.00 in OVC
05:40 40.0 °F 39.2 °F 29.89 in SW 1.0 mph 5.0 mph 97% 0.00 in OVC
05:50 40.0 °F 39.2 °F 29.89 in Calm   5.0 mph 97% 0.00 in OVC
06:00 39.9 °F 39.2 °F 29.89 in Calm   4.0 mph 97% 0.00 in OVC
06:10 39.9 °F 39.1 °F 29.89 in SW 2.0 mph 4.0 mph 97% 0.00 in CLR
06:20 40.0 °F 39.2 °F 29.90 in SW 2.0 mph 4.0 mph 97% 0.00 in CLR
06:30 39.9 °F 39.2 °F 29.90 in SW 2.0 mph 5.0 mph 97% 0.00 in CLR
06:40 40.0 °F 39.2 °F 29.90 in SW 1.0 mph 6.0 mph 97% 0.00 in CLR
06:50 40.0 °F 39.2 °F 29.90 in SW 2.0 mph 6.0 mph 97% 0.00 in CLR
07:00 40.0 °F 39.2 °F 29.90 in SW 2.0 mph 5.0 mph 97% 0.00 in CLR
07:10 40.0 °F 39.2 °F 29.90 in SW 2.0 mph 4.0 mph 97% 0.00 in CLR
07:20 40.0 °F 39.2 °F 29.90 in Calm   3.0 mph 97% 0.00 in CLR
07:30 40.0 °F 39.2 °F 29.90 in Calm   2.0 mph 97% 0.00 in CLR
07:40 40.0 °F 39.2 °F 29.90 in Calm   4.0 mph 97% 0.00 in CLR
07:50 39.9 °F 39.1 °F 29.89 in SSW 1.0 mph 4.0 mph 97% 0.00 in CLR
08:00 40.0 °F 39.2 °F 29.90 in SSW 1.0 mph 3.0 mph 97% 0.00 in CLR
08:10 40.3 °F 39.5 °F 29.90 in SSW 1.0 mph 4.0 mph 97% 0.00 in CLR
08:20 40.5 °F 39.7 °F 29.89 in Calm   4.0 mph 97% 0.00 in CLR
08:30 40.6 °F 39.8 °F 29.89 in SW 2.0 mph 4.0 mph 97% 0.00 in CLR
08:40 40.6 °F 39.8 °F 29.90 in Calm   4.0 mph 97% 0.00 in CLR
08:50 40.5 °F 39.7 °F 29.90 in SW 1.0 mph 3.0 mph 97% 0.00 in CLR
09:00 40.7 °F 39.9 °F 29.90 in SSW 2.0 mph 5.0 mph 97% 0.00 in CLR
09:10 41.0 °F 40.2 °F 29.90 in SW 1.0 mph 5.0 mph 97% 0.00 in BKN
09:30 41.3 °F 40.5 °F 29.91 in SSW 1.0 mph 5.0 mph 97% 0.00 in BKN
09:40 41.5 °F 40.7 °F 29.91 in SW 2.0 mph 6.0 mph 97% 0.00 in BKN
09:50 41.8 °F 41.0 °F 29.91 in SW 2.0 mph 6.0 mph 97% 0.00 in BKN
10:00 42.1 °F 41.3 °F 29.90 in SSW 2.0 mph 5.0 mph 97% 0.00 in BKN
10:10 42.3 °F 41.5 °F 29.90 in SSW 2.0 mph 6.0 mph 97% 0.00 in BKN
10:20 42.5 °F 41.4 °F 29.90 in SW 2.0 mph 5.0 mph 96% 0.00 in BKN
10:30 42.4 °F 41.4 °F 29.90 in SW 1.0 mph 6.0 mph 96% 0.00 in BKN
10:40 42.5 °F 41.4 °F 29.89 in WSW 1.0 mph 5.0 mph 96% 0.00 in BKN
10:50 42.6 °F 41.6 °F 29.89 in WSW 1.0 mph 5.0 mph 96% 0.00 in BKN
11:00 42.6 °F 41.5 °F 29.88 in Calm   6.0 mph 96% 0.00 in BKN
11:10 42.9 °F 41.8 °F 29.89 in WSW 1.0 mph 3.0 mph 96% 0.00 in BKN
11:20 43.1 °F 41.7 °F 29.89 in SW 1.0 mph 4.0 mph 95% 0.00 in BKN
11:30 43.2 °F 41.9 °F 29.89 in SW 1.0 mph 5.0 mph 95% 0.00 in BKN
11:40 43.7 °F 42.4 °F 29.89 in SSW 3.0 mph 7.0 mph 95% 0.00 in BKN
11:50 44.0 °F 42.7 °F 29.89 in SW 2.0 mph 7.0 mph 95% 0.00 in BKN
12:00 44.3 °F 43.0 °F 29.88 in West 1.0 mph 7.0 mph 95% 0.00 in BKN
12:10 44.5 °F 42.9 °F 29.87 in SSW 3.0 mph 7.0 mph 94% 0.00 in BKN
12:20 44.8 °F 43.1 °F 29.87 in SW 1.0 mph 8.0 mph 94% 0.00 in BKN
12:30 45.2 °F 43.6 °F 29.85 in Calm   4.0 mph 94% 0.00 in BKN
12:40 45.5 °F 43.6 °F 29.84 in SSW 1.0 mph 3.0 mph 93% 0.00 in BKN
12:50 45.9 °F 44.0 °F 29.84 in SW 2.0 mph 5.0 mph 93% 0.00 in BKN
13:00 46.3 °F 44.1 °F 29.84 in SW 1.0 mph 4.0 mph 92% 0.00 in BKN
13:10 46.6 °F 44.1 °F 29.83 in South 2.0 mph 5.0 mph 91% 0.00 in BKN
13:20 47.1 °F 44.3 °F 29.82 in SSW 2.0 mph 5.0 mph 90% 0.00 in BKN
13:30 48.1 °F 45.3 °F 29.82 in Calm   4.0 mph 90% 0.00 in BKN
13:40 48.6 °F 45.2 °F 29.82 in SW 1.0 mph 5.0 mph 88% 0.00 in BKN
13:50 49.0 °F 45.0 °F 29.81 in Calm   4.0 mph 86% 0.00 in BKN
14:00 49.5 °F 45.5 °F 29.81 in Calm   3.0 mph 86% 0.00 in BKN
14:10 50.5 °F 45.5 °F 29.81 in SSW 1.0 mph 5.0 mph 83% 0.00 in FEW
14:20 50.3 °F 45.0 °F 29.82 in SW 2.0 mph 6.0 mph 82% 0.00 in FEW
14:30 50.2 °F 44.9 °F 29.82 in WSW 1.0 mph 5.0 mph 82% 0.00 in FEW
14:40 50.4 °F 45.1 °F 29.82 in Calm   5.0 mph 82% 0.00 in FEW
14:50 50.9 °F 45.6 °F 29.82 in Calm   4.0 mph 82% 0.00 in FEW
15:00 51.4 °F 45.1 °F 29.82 in SSW 3.0 mph 5.0 mph 79% 0.00 in FEW
15:10 51.4 °F 45.4 °F 29.82 in SW 1.0 mph 5.0 mph 80% 0.00 in CLR
15:20 52.0 °F 45.7 °F 29.82 in SSW 2.0 mph 6.0 mph 79% 0.00 in CLR
15:30 51.5 °F 45.2 °F 29.82 in Calm   6.0 mph 79% 0.00 in CLR
15:40 51.3 °F 45.1 °F 29.82 in SSW 3.0 mph 6.0 mph 79% 0.00 in CLR
15:50 50.7 °F 45.1 °F 29.82 in SW 2.0 mph 7.0 mph 81% 0.00 in CLR
16:00 50.6 °F 45.0 °F 29.82 in SSW 1.0 mph 4.0 mph 81% 0.00 in CLR
16:10 50.4 °F 45.1 °F 29.82 in SSW 2.0 mph 5.0 mph 82% 0.00 in CLR
16:20 50.6 °F 45.0 °F 29.82 in SSW 2.0 mph 3.0 mph 81% 0.00 in CLR
16:30 50.5 °F 45.2 °F 29.82 in Calm   5.0 mph 82% 0.00 in CLR
16:40 50.1 °F 44.5 °F 29.82 in SW 1.0 mph 3.0 mph 81% 0.00 in CLR
16:50 48.9 °F 44.0 °F 29.82 in SW 2.0 mph 5.0 mph 83% 0.00 in CLR
17:00 47.9 °F 43.6 °F 29.82 in SW 1.0 mph 2.0 mph 85% 0.00 in CLR
17:10 47.0 °F 43.0 °F 29.82 in South 1.0 mph 4.0 mph 86% 0.00 in CLR
17:20 46.3 °F 42.9 °F 29.82 in Calm   4.0 mph 88% 0.00 in CLR
17:30 45.7 °F 42.9 °F 29.82 in SW 2.0 mph 4.0 mph 90% 0.00 in CLR
17:40 45.5 °F 42.7 °F 29.82 in SW 1.0 mph 4.0 mph 90% 0.00 in CLR
17:50 45.1 °F 42.4 °F 29.82 in South 1.0 mph 2.0 mph 90% 0.00 in CLR
18:00 44.9 °F 42.4 °F 29.82 in South 2.0 mph 4.0 mph 91% 0.00 in CLR
18:10 44.7 °F 42.5 °F 29.82 in Calm   3.0 mph 92% 0.00 in CLR
18:20 44.5 °F 42.3 °F 29.83 in SSW 1.0 mph 3.0 mph 92% 0.00 in CLR
TarryTown NY Weather
Compliments of Weather Underground - 1.5 mb